createdAt,value
2022-10-31T00:01:39.843Z,97745.66
2022-10-31T00:04:25.102Z,97741.34
2022-10-31T00:07:10.549Z,97737.91
2022-10-31T00:09:55.887Z,97746.00
2022-10-31T00:12:41.658Z,97746.00
2022-10-31T00:15:27.233Z,97749.00
2022-10-31T00:18:12.830Z,97750.63
2022-10-31T00:21:02.928Z,97751.00
2022-10-31T00:23:48.996Z,97753.81
2022-10-31T00:26:35.225Z,97753.81
2022-10-31T00:29:20.983Z,97755.47
2022-10-31T00:32:06.597Z,97756.06
2022-10-31T00:34:53.537Z,97747.31
2022-10-31T00:37:39.059Z,97750.31
2022-10-31T00:40:24.447Z,97745.94
2022-10-31T00:45:57.689Z,97747.91
2022-10-31T00:48:43.511Z,97751.56
2022-10-31T00:51:29.017Z,97750.75
2022-10-31T00:54:14.445Z,97749.56
2022-10-31T00:57:00.385Z,97748.34
2022-10-31T00:59:45.865Z,97743.47
2022-10-31T01:02:31.325Z,97742.22
2022-10-31T01:05:17.310Z,97744.63
2022-10-31T01:08:04.841Z,97740.34
2022-10-31T01:11:00.235Z,97739.72
2022-10-31T01:13:46.710Z,97734.44
2022-10-31T01:16:32.310Z,97748.25
2022-10-31T01:19:18.008Z,97748.25
2022-10-31T01:22:03.611Z,97751.09
2022-10-31T01:24:49.164Z,97743.75
2022-10-31T01:27:34.670Z,97744.75
2022-10-31T01:30:20.417Z,97745.16
2022-10-31T01:33:06.058Z,97747.78
2022-10-31T01:35:51.869Z,97743.28
2022-10-31T01:38:37.624Z,97753.72
2022-10-31T01:41:26.453Z,97747.81
2022-10-31T01:44:14.879Z,97739.88
2022-10-31T01:47:06.565Z,97744.72
2022-10-31T01:50:01.356Z,97740.00
2022-10-31T01:52:51.399Z,97739.41
2022-10-31T01:55:41.474Z,97735.13
2022-10-31T01:58:29.643Z,97742.78
2022-10-31T02:01:17.849Z,97739.28
2022-10-31T02:04:05.123Z,97738.28
2022-10-31T02:06:53.905Z,97737.25
2022-10-31T02:09:41.700Z,97736.88
2022-10-31T02:12:28.098Z,97737.53
2022-10-31T02:15:17.832Z,97738.88
2022-10-31T02:18:04.388Z,97740.09
2022-10-31T02:21:03.745Z,97736.38
2022-10-31T02:24:17.867Z,97745.84
2022-10-31T02:27:33.677Z,97741.94
2022-10-31T02:30:24.693Z,97742.31
2022-10-31T02:33:27.449Z,97742.69
2022-10-31T02:36:28.204Z,97747.16
2022-10-31T02:39:32.199Z,97745.50
2022-10-31T02:42:33.015Z,97740.63
2022-10-31T02:45:34.072Z,97740.34
2022-10-31T02:48:23.018Z,97742.38
2022-10-31T02:51:11.115Z,97742.53
2022-10-31T02:53:56.723Z,97741.94
2022-10-31T02:56:41.965Z,97739.50
2022-10-31T02:59:31.736Z,97747.72
2022-10-31T03:02:33.890Z,97747.28
2022-10-31T03:05:37.684Z,97744.84
2022-10-31T03:08:39.137Z,97749.13
2022-10-31T03:11:30.984Z,97748.91
2022-10-31T03:14:25.249Z,97746.94
2022-10-31T03:17:26.881Z,97744.47
2022-10-31T03:20:12.379Z,97742.66
2022-10-31T03:23:00.709Z,97744.22
2022-10-31T03:25:48.518Z,97735.53
2022-10-31T03:28:46.524Z,97740.69
2022-10-31T03:31:37.796Z,97748.97
2022-10-31T03:34:25.580Z,97747.97
2022-10-31T03:37:15.174Z,97748.75
2022-10-31T03:40:03.709Z,97742.69
2022-10-31T03:43:01.581Z,97748.75
2022-10-31T03:45:48.302Z,97749.41
2022-10-31T03:48:34.802Z,97749.22
2022-10-31T03:51:26.224Z,97751.84
2022-10-31T03:54:32.231Z,97748.38
2022-10-31T03:57:23.790Z,97761.16
2022-10-31T04:00:12.232Z,97760.19
2022-10-31T04:03:09.952Z,97759.72
2022-10-31T04:06:01.586Z,97759.53
2022-10-31T04:09:00.885Z,97765.00
2022-10-31T04:11:53.553Z,97766.78
2022-10-31T04:15:10.927Z,97765.97
2022-10-31T04:18:00.650Z,97770.59
2022-10-31T04:20:49.676Z,97764.72
2022-10-31T04:23:37.319Z,97765.72
2022-10-31T04:26:36.622Z,97773.97
2022-10-31T04:29:22.499Z,97766.44
2022-10-31T04:32:07.911Z,97768.44
2022-10-31T04:34:53.373Z,97768.44
2022-10-31T04:37:38.700Z,97766.66
2022-10-31T04:40:24.209Z,97768.44
2022-10-31T04:43:28.716Z,97772.06
2022-10-31T04:46:14.109Z,97758.47
2022-10-31T04:48:59.549Z,97772.53
2022-10-31T04:51:45.554Z,97769.91
2022-10-31T04:54:32.932Z,97766.81
2022-10-31T04:57:45.735Z,97773.91
2022-10-31T05:00:32.289Z,97776.34
2022-10-31T05:03:17.763Z,97784.84
2022-10-31T05:06:03.117Z,97779.75
2022-10-31T05:08:48.678Z,97772.06
2022-10-31T05:11:34.259Z,97775.06
2022-10-31T05:14:31.886Z,97774.44
2022-10-31T05:17:39.906Z,97773.78
2022-10-31T05:20:51.669Z,97777.41
2022-10-31T05:23:53.349Z,97776.34
2022-10-31T05:26:41.539Z,97775.50
2022-10-31T05:29:28.816Z,97770.63
2022-10-31T05:32:14.397Z,97771.63
2022-10-31T05:35:37.968Z,97777.84
2022-10-31T05:38:46.463Z,97771.50
2022-10-31T05:41:40.331Z,97774.84
2022-10-31T05:44:33.289Z,97779.50
2022-10-31T05:47:30.837Z,97770.16
2022-10-31T05:50:16.420Z,97772.13
2022-10-31T05:53:06.879Z,97776.75
2022-10-31T05:55:57.158Z,97784.63
2022-10-31T05:58:42.695Z,97780.22
2022-10-31T06:01:28.217Z,97786.25
2022-10-31T06:04:14.460Z,97781.81
2022-10-31T06:07:01.654Z,97783.44
2022-10-31T06:09:46.896Z,97786.72
2022-10-31T06:12:32.906Z,97784.44
2022-10-31T06:15:39.297Z,97778.56
2022-10-31T06:18:26.742Z,97782.00
2022-10-31T06:21:16.396Z,97788.41
2022-10-31T06:24:05.473Z,97786.63
2022-10-31T06:27:27.001Z,97799.19
2022-10-31T06:30:13.391Z,97798.03
2022-10-31T06:33:06.042Z,97791.63
2022-10-31T06:35:54.389Z,97805.19
2022-10-31T06:38:40.296Z,97803.41
2022-10-31T06:41:27.774Z,97803.84
2022-10-31T06:44:13.195Z,97800.69
2022-10-31T06:47:13.786Z,97802.41
2022-10-31T06:49:59.243Z,97810.38
2022-10-31T06:52:54.248Z,97811.94
2022-10-31T06:55:39.897Z,97810.88
2022-10-31T06:58:27.404Z,97817.84
2022-10-31T07:01:18.025Z,97814.28
2022-10-31T07:04:03.584Z,97826.16
2022-10-31T07:06:53.801Z,97825.88
2022-10-31T07:09:39.445Z,97823.16
2022-10-31T07:12:26.473Z,97825.31
2022-10-31T07:15:17.141Z,97827.09
2022-10-31T07:18:04.696Z,97830.69
2022-10-31T07:20:50.277Z,97827.00
2022-10-31T07:23:37.304Z,97827.13
2022-10-31T07:29:51.357Z,97827.25
2022-10-31T07:32:44.620Z,97822.72
2022-10-31T07:35:32.677Z,97825.06
2022-10-31T07:38:18.824Z,97815.63
2022-10-31T07:41:04.794Z,97817.34
2022-10-31T07:47:05.912Z,97819.50
2022-10-31T07:50:14.277Z,97815.53
2022-10-31T07:53:38.502Z,97818.84
2022-10-31T07:56:31.847Z,97814.00
2022-10-31T07:59:17.256Z,97810.38
2022-10-31T08:02:02.809Z,97812.00
2022-10-31T08:04:51.261Z,97818.13
2022-10-31T08:07:48.520Z,97808.38
2022-10-31T08:10:38.995Z,97812.63
2022-10-31T08:13:24.410Z,97812.19
2022-10-31T08:16:10.440Z,97811.16
2022-10-31T08:19:04.150Z,97813.59
2022-10-31T08:21:56.881Z,97813.38
2022-10-31T08:24:42.242Z,97807.19
2022-10-31T08:27:27.695Z,97805.69
2022-10-31T08:30:16.092Z,97805.22
2022-10-31T08:33:16.582Z,97808.38
2022-10-31T08:36:28.448Z,97806.88
2022-10-31T08:39:22.643Z,97805.75
2022-10-31T08:42:09.143Z,97800.78
2022-10-31T08:44:54.557Z,97801.69
2022-10-31T08:47:41.192Z,97802.38
2022-10-31T08:50:27.970Z,97795.16
2022-10-31T08:53:18.787Z,97798.25
2022-10-31T08:56:09.002Z,97791.59
2022-10-31T08:58:55.410Z,97798.16
2022-10-31T09:01:50.774Z,97797.34
2022-10-31T09:04:36.846Z,97791.06
2022-10-31T09:07:22.137Z,97793.75
2022-10-31T09:10:07.837Z,97789.09
2022-10-31T09:12:59.785Z,97783.97
2022-10-31T09:16:17.392Z,97783.66
2022-10-31T09:19:05.199Z,97779.75
2022-10-31T09:21:55.367Z,97775.03
2022-10-31T09:24:40.939Z,97779.91
2022-10-31T09:27:26.270Z,97774.38
2022-10-31T09:30:14.381Z,97779.47
2022-10-31T09:33:07.973Z,97770.69
2022-10-31T09:35:54.032Z,97770.19
2022-10-31T09:38:39.418Z,97762.63
2022-10-31T09:41:43.678Z,97765.63
2022-10-31T09:44:47.323Z,97759.78
2022-10-31T09:48:04.242Z,97756.91
2022-10-31T09:51:01.565Z,97752.44
2022-10-31T09:54:21.735Z,97753.53
2022-10-31T09:57:13.564Z,97744.75
2022-10-31T10:00:00.384Z,97744.19
2022-10-31T10:02:56.214Z,97740.94
2022-10-31T10:05:46.336Z,97740.13
2022-10-31T10:08:39.674Z,97737.63
2022-10-31T10:12:02.484Z,97735.19
2022-10-31T10:15:16.792Z,97729.47
2022-10-31T10:18:45.708Z,97728.88
2022-10-31T10:21:52.454Z,97722.09
2022-10-31T10:24:53.192Z,97726.53
2022-10-31T10:27:58.671Z,97725.66
2022-10-31T10:31:08.841Z,97722.31
2022-10-31T10:34:07.149Z,97714.94
2022-10-31T10:37:02.338Z,97712.88
2022-10-31T10:39:54.226Z,97709.78
2022-10-31T10:42:57.859Z,97705.06
2022-10-31T10:46:11.607Z,97697.94
2022-10-31T10:49:20.415Z,97687.91
2022-10-31T10:52:40.897Z,97691.19
2022-10-31T10:55:45.842Z,97683.75
2022-10-31T10:58:31.546Z,97685.66
2022-10-31T11:01:17.299Z,97688.94
2022-10-31T11:04:03.812Z,97681.72
2022-10-31T11:07:02.697Z,97680.44
2022-10-31T11:09:48.267Z,97677.75
2022-10-31T11:12:34.833Z,97677.78
2022-10-31T11:15:23.639Z,97667.03
2022-10-31T11:18:22.467Z,97665.97
2022-10-31T11:21:21.939Z,97661.38
2022-10-31T11:24:10.151Z,97666.22
2022-10-31T11:27:14.719Z,97658.94
2022-10-31T11:30:08.304Z,97660.03
2022-10-31T11:32:54.011Z,97649.81
2022-10-31T11:35:41.172Z,97655.72
2022-10-31T11:38:44.369Z,97651.94
2022-10-31T11:41:37.447Z,97644.09
2022-10-31T11:44:29.648Z,97639.75
2022-10-31T11:47:17.523Z,97635.97
2022-10-31T11:50:10.474Z,97626.50
2022-10-31T11:52:56.570Z,97621.34
2022-10-31T11:55:42.231Z,97619.69
2022-10-31T11:58:28.034Z,97616.13
2022-10-31T12:01:31.785Z,97612.03
2022-10-31T12:04:20.140Z,97610.06
2022-10-31T12:07:05.434Z,97608.94
2022-10-31T12:09:51.211Z,97600.28
2022-10-31T12:13:02.240Z,97599.94
2022-10-31T12:15:56.494Z,97595.22
2022-10-31T12:19:17.019Z,97588.69
2022-10-31T12:22:31.719Z,97594.97
2022-10-31T12:25:26.919Z,97585.72
2022-10-31T12:28:15.446Z,97584.84
2022-10-31T12:31:08.810Z,97579.59
2022-10-31T12:34:09.551Z,97578.38
2022-10-31T12:37:05.063Z,97575.06
2022-10-31T12:40:05.696Z,97576.53
2022-10-31T12:43:16.009Z,97567.56
2022-10-31T12:46:04.084Z,97564.00
2022-10-31T12:49:04.906Z,97558.53
2022-10-31T12:51:57.810Z,97569.25
2022-10-31T12:55:06.567Z,97559.22
2022-10-31T12:57:59.382Z,97558.31
2022-10-31T13:00:49.411Z,97557.97
2022-10-31T13:03:47.652Z,97558.69
2022-10-31T13:06:48.095Z,97555.94
2022-10-31T13:09:47.281Z,97556.66
2022-10-31T13:12:38.210Z,97547.69
2022-10-31T13:15:28.025Z,97552.50
2022-10-31T13:18:31.483Z,97548.94
2022-10-31T13:21:26.259Z,97538.13
2022-10-31T13:24:21.051Z,97540.53
2022-10-31T13:27:22.947Z,97527.72
2022-10-31T13:30:21.964Z,97532.34
2022-10-31T13:33:18.656Z,97527.34
2022-10-31T13:37:05.690Z,97525.88
2022-10-31T13:40:00.031Z,97531.59
2022-10-31T13:43:12.040Z,97529.53
2022-10-31T13:45:57.505Z,97524.16
2022-10-31T13:48:43.786Z,97517.44
2022-10-31T13:51:35.319Z,97531.22
2022-10-31T13:54:32.930Z,97518.38
2022-10-31T13:57:33.117Z,97512.56
2022-10-31T14:00:27.044Z,97516.00
2022-10-31T14:03:36.185Z,97518.25
2022-10-31T14:06:58.435Z,97513.53
2022-10-31T14:09:55.708Z,97508.56
2022-10-31T14:12:45.807Z,97517.81
2022-10-31T14:15:31.907Z,97508.75
2022-10-31T14:18:29.953Z,97510.81
2022-10-31T14:21:17.421Z,97507.75
2022-10-31T14:24:02.910Z,97506.25
2022-10-31T14:26:57.317Z,97507.97
2022-10-31T14:29:45.465Z,97500.31
2022-10-31T14:32:36.570Z,97505.53
2022-10-31T14:35:27.506Z,97490.28
2022-10-31T14:38:40.704Z,97497.06
2022-10-31T14:41:50.902Z,97494.47
2022-10-31T14:45:00.920Z,97492.41
2022-10-31T14:47:54.473Z,97484.91
2022-10-31T14:51:09.726Z,97487.16
2022-10-31T14:53:58.019Z,97486.19
2022-10-31T14:56:50.614Z,97484.09
2022-10-31T14:59:40.159Z,97475.53
2022-10-31T15:02:37.967Z,97478.56
2022-10-31T15:05:24.034Z,97482.44
2022-10-31T15:08:30.296Z,97480.16
2022-10-31T15:11:20.148Z,97474.84
2022-10-31T15:14:23.954Z,97476.56
2022-10-31T15:17:12.619Z,97474.50
2022-10-31T15:19:58.701Z,97476.16
2022-10-31T15:22:44.094Z,97476.66
2022-10-31T15:25:34.928Z,97470.53
2022-10-31T15:28:25.701Z,97472.41
2022-10-31T15:31:17.658Z,97459.50
2022-10-31T15:34:17.302Z,97460.84
2022-10-31T15:37:02.613Z,97462.13
2022-10-31T15:39:50.316Z,97453.22
2022-10-31T15:42:41.744Z,97453.97
2022-10-31T15:45:29.562Z,97458.97
2022-10-31T15:48:19.181Z,97447.41
2022-10-31T15:51:05.996Z,97446.78
2022-10-31T15:53:54.882Z,97454.16
2022-10-31T15:56:40.421Z,97450.06
2022-10-31T15:59:28.418Z,97448.06
2022-10-31T16:02:16.444Z,97449.06
2022-10-31T16:05:03.270Z,97453.50
2022-10-31T16:07:52.954Z,97454.47
2022-10-31T16:10:38.370Z,97455.19
2022-10-31T16:13:30.180Z,97447.88
2022-10-31T16:16:35.553Z,97445.34
2022-10-31T16:19:36.795Z,97448.16
2022-10-31T16:22:26.538Z,97445.09
2022-10-31T16:25:25.957Z,97449.97
2022-10-31T16:28:20.624Z,97450.91
2022-10-31T16:31:15.180Z,97451.56
2022-10-31T16:34:13.743Z,97449.25
2022-10-31T16:36:58.995Z,97450.19
2022-10-31T16:39:44.171Z,97446.81
2022-10-31T16:42:29.693Z,97447.16
2022-10-31T16:45:24.624Z,97437.50
2022-10-31T16:48:16.445Z,97446.94
2022-10-31T16:51:02.146Z,97431.28
2022-10-31T16:53:47.775Z,97431.19
2022-10-31T16:56:35.325Z,97436.53
2022-10-31T16:59:20.834Z,97434.69
2022-10-31T17:02:12.139Z,97430.16
2022-10-31T17:04:57.825Z,97430.41
2022-10-31T17:07:43.832Z,97433.28
2022-10-31T17:10:29.307Z,97435.41
2022-10-31T17:13:19.900Z,97434.59
2022-10-31T17:16:05.605Z,97434.84
2022-10-31T17:18:50.912Z,97431.06
2022-10-31T17:21:37.715Z,97428.41
2022-10-31T17:24:22.977Z,97432.44
2022-10-31T17:27:08.421Z,97429.25
2022-10-31T17:29:54.089Z,97429.59
2022-10-31T17:32:40.468Z,97421.13
2022-10-31T17:35:26.389Z,97422.25
2022-10-31T17:38:12.576Z,97432.66
2022-10-31T17:40:58.207Z,97424.44
2022-10-31T17:43:43.651Z,97429.13
2022-10-31T17:46:29.162Z,97414.75
2022-10-31T17:49:14.529Z,97414.25
2022-10-31T17:52:00.176Z,97417.06
2022-10-31T17:54:45.946Z,97418.81
2022-10-31T17:57:36.357Z,97418.13
2022-10-31T18:00:24.069Z,97423.13
2022-10-31T18:03:09.693Z,97415.06
2022-10-31T18:05:58.352Z,97411.22
2022-10-31T18:08:44.605Z,97411.47
2022-10-31T18:11:29.753Z,97409.53
2022-10-31T18:14:15.046Z,97413.69
2022-10-31T18:17:00.497Z,97408.03
2022-10-31T18:19:45.979Z,97404.00
2022-10-31T18:22:31.482Z,97407.50
2022-10-31T18:25:16.895Z,97406.81
2022-10-31T18:28:02.902Z,97404.06
2022-10-31T18:30:48.711Z,97398.63
2022-10-31T18:33:34.196Z,97398.28
2022-10-31T18:36:19.671Z,97396.34
2022-10-31T18:39:05.443Z,97389.78
2022-10-31T18:41:50.889Z,97397.03
2022-10-31T18:44:36.355Z,97395.06
2022-10-31T18:47:22.635Z,97386.91
2022-10-31T18:50:07.869Z,97389.91
2022-10-31T18:52:53.076Z,97396.47
2022-10-31T18:55:45.492Z,97387.94
2022-10-31T18:58:35.181Z,97383.09
2022-10-31T19:01:22.094Z,97386.44
2022-10-31T19:04:07.482Z,97388.59
2022-10-31T19:06:54.425Z,97391.47
2022-10-31T19:09:40.366Z,97389.06
2022-10-31T19:12:25.890Z,97380.75
2022-10-31T19:15:11.288Z,97382.34
2022-10-31T19:17:57.066Z,97382.66
2022-10-31T19:20:42.567Z,97375.97
2022-10-31T19:23:28.142Z,97372.97
2022-10-31T19:26:14.913Z,97373.28
2022-10-31T19:29:00.140Z,97367.06
2022-10-31T19:31:45.647Z,97368.53
2022-10-31T19:34:31.067Z,97364.63
2022-10-31T19:37:16.621Z,97371.84
2022-10-31T19:40:02.681Z,97357.41
2022-10-31T19:42:48.043Z,97366.06
2022-10-31T19:45:33.665Z,97361.06
2022-10-31T19:48:19.070Z,97358.28
2022-10-31T19:51:07.591Z,97352.84
2022-10-31T19:53:54.180Z,97349.81
2022-10-31T19:56:39.860Z,97343.13
2022-10-31T19:59:26.244Z,97350.72
2022-10-31T20:02:19.742Z,97350.16
2022-10-31T20:05:05.869Z,97356.13
2022-10-31T20:07:51.751Z,97356.34
2022-10-31T20:10:37.441Z,97352.31
2022-10-31T20:13:24.069Z,97350.09
2022-10-31T20:16:11.848Z,97356.88
2022-10-31T20:18:59.610Z,97355.09
2022-10-31T20:21:45.306Z,97368.78
2022-10-31T20:24:32.760Z,97357.03
2022-10-31T20:27:18.093Z,97349.50
2022-10-31T20:30:04.187Z,97356.28
2022-10-31T20:32:50.228Z,97367.38
2022-10-31T20:35:40.482Z,97356.56
2022-10-31T20:38:26.018Z,97356.91
2022-10-31T20:41:12.512Z,97353.91
2022-10-31T20:43:58.372Z,97348.97
2022-10-31T20:46:43.891Z,97349.59
2022-10-31T20:49:30.611Z,97360.25
2022-10-31T20:52:16.519Z,97353.41
2022-10-31T20:55:02.258Z,97358.72
2022-10-31T20:57:47.660Z,97354.13
2022-10-31T21:00:33.599Z,97353.53
2022-10-31T21:03:19.805Z,97358.22
2022-10-31T21:06:05.585Z,97352.91
2022-10-31T21:08:52.225Z,97360.91
2022-10-31T21:11:38.113Z,97356.25
2022-10-31T21:14:23.508Z,97355.06
2022-10-31T21:17:09.022Z,97349.19
2022-10-31T21:19:54.501Z,97352.03
2022-10-31T21:22:40.278Z,97352.91
2022-10-31T21:25:25.985Z,97352.72
2022-10-31T21:28:12.744Z,97350.72
2022-10-31T21:30:59.841Z,97344.44
2022-10-31T21:33:46.617Z,97350.19
2022-10-31T21:36:31.918Z,97344.50
2022-10-31T21:39:17.364Z,97340.06
2022-10-31T21:42:02.593Z,97345.78
2022-10-31T21:44:47.959Z,97350.47
2022-10-31T21:47:33.582Z,97345.78
2022-10-31T21:50:19.011Z,97343.59
2022-10-31T21:53:24.543Z,97348.88
2022-10-31T21:56:09.973Z,97344.22
2022-10-31T21:58:56.123Z,97348.09
2022-10-31T22:01:41.948Z,97344.06
2022-10-31T22:04:28.182Z,97343.69
2022-10-31T22:07:13.649Z,97338.81
2022-10-31T22:09:59.047Z,97339.06
2022-10-31T22:12:44.505Z,97334.19
2022-10-31T22:15:30.063Z,97328.50
2022-10-31T22:18:15.374Z,97335.81
2022-10-31T22:21:02.649Z,97330.53
2022-10-31T22:24:01.947Z,97326.88
2022-10-31T22:26:50.369Z,97327.09
2022-10-31T22:29:37.637Z,97328.13
2022-10-31T22:32:23.610Z,97330.13
2022-10-31T22:35:09.379Z,97319.63
2022-10-31T22:37:54.923Z,97320.44
2022-10-31T22:40:40.586Z,97318.84
2022-10-31T22:43:26.336Z,97316.81
2022-10-31T22:46:14.517Z,97313.56
2022-10-31T22:49:00.978Z,97321.69
2022-10-31T22:51:45.984Z,97310.34
2022-10-31T22:54:32.114Z,97314.19
2022-10-31T22:57:17.303Z,97308.75
2022-10-31T23:00:04.551Z,97313.78
2022-10-31T23:02:49.855Z,97308.72
2022-10-31T23:05:35.275Z,97305.88
2022-10-31T23:08:20.575Z,97303.44
2022-10-31T23:11:33.714Z,97307.09
2022-10-31T23:14:21.131Z,97301.63
2022-10-31T23:17:06.922Z,97291.69
2022-10-31T23:19:52.224Z,97299.59
2022-10-31T23:22:37.755Z,97304.63
2022-10-31T23:25:41.639Z,97309.47
2022-10-31T23:28:26.936Z,97315.53
2022-10-31T23:31:12.457Z,97312.09
2022-10-31T23:33:57.904Z,97309.06
2022-10-31T23:36:43.370Z,97305.81
2022-10-31T23:39:29.697Z,97309.06
2022-10-31T23:42:15.733Z,97306.81
2022-10-31T23:45:01.650Z,97309.84
2022-10-31T23:47:46.841Z,97311.47
2022-10-31T23:50:32.448Z,97313.50
2022-10-31T23:53:17.703Z,97312.69
2022-10-31T23:56:03.108Z,97304.41
2022-10-31T23:58:48.661Z,97302.19
